sensor_id;sensor_type;location;lat;lon;timestamp;temperature;humidity
38973;DHT22;25333;50.762;4.470;2023-05-29T00:01:33;14.50;99.90
38973;DHT22;25333;50.762;4.470;2023-05-29T00:04:03;14.60;99.90
38973;DHT22;25333;50.762;4.470;2023-05-29T00:06:28;14.50;99.90
38973;DHT22;25333;50.762;4.470;2023-05-29T00:08:58;14.50;99.90
38973;DHT22;25333;50.762;4.470;2023-05-29T00:11:44;14.50;99.90
38973;DHT22;25333;50.762;4.470;2023-05-29T00:14:16;14.50;99.90
38973;DHT22;25333;50.762;4.470;2023-05-29T00:16:45;14.40;99.90
38973;DHT22;25333;50.762;4.470;2023-05-29T00:19:12;14.40;99.90
38973;DHT22;25333;50.762;4.470;2023-05-29T00:21:39;14.40;99.90
38973;DHT22;25333;50.762;4.470;2023-05-29T00:24:06;14.40;99.90
38973;DHT22;25333;50.762;4.470;2023-05-29T00:26:31;14.40;99.90
38973;DHT22;25333;50.762;4.470;2023-05-29T00:28:57;14.30;99.90
38973;DHT22;25333;50.762;4.470;2023-05-29T00:31:22;14.40;99.90
38973;DHT22;25333;50.762;4.470;2023-05-29T00:33:50;14.30;99.90
38973;DHT22;25333;50.762;4.470;2023-05-29T00:36:15;14.30;99.90
38973;DHT22;25333;50.762;4.470;2023-05-29T00:38:41;14.30;99.90
38973;DHT22;25333;50.762;4.470;2023-05-29T00:41:07;14.20;99.90
38973;DHT22;25333;50.762;4.470;2023-05-29T00:43:33;14.20;99.90
38973;DHT22;25333;50.762;4.470;2023-05-29T00:45:59;14.10;99.90
38973;DHT22;25333;50.762;4.470;2023-05-29T00:48:25;14.10;99.90
38973;DHT22;25333;50.762;4.470;2023-05-29T00:50:51;14.20;99.90
38973;DHT22;25333;50.762;4.470;2023-05-29T00:53:19;14.10;99.90
38973;DHT22;25333;50.762;4.470;2023-05-29T00:55:46;14.00;99.90
38973;DHT22;25333;50.762;4.470;2023-05-29T00:58:12;13.90;99.90
38973;DHT22;25333;50.762;4.470;2023-05-29T01:00:38;13.90;99.90
38973;DHT22;25333;50.762;4.470;2023-05-29T01:03:05;14.00;99.90
38973;DHT22;25333;50.762;4.470;2023-05-29T01:05:34;13.90;99.90
38973;DHT22;25333;50.762;4.470;2023-05-29T01:08:02;13.90;99.90
38973;DHT22;25333;50.762;4.470;2023-05-29T01:10:27;13.90;99.90
38973;DHT22;25333;50.762;4.470;2023-05-29T01:13:18;13.80;99.90
38973;DHT22;25333;50.762;4.470;2023-05-29T01:16:12;13.70;99.90
38973;DHT22;25333;50.762;4.470;2023-05-29T01:18:55;13.50;99.90
38973;DHT22;25333;50.762;4.470;2023-05-29T01:21:54;13.50;99.90
38973;DHT22;25333;50.762;4.470;2023-05-29T01:27:29;13.50;99.90
38973;DHT22;25333;50.762;4.470;2023-05-29T01:29:58;13.60;99.90
38973;DHT22;25333;50.762;4.470;2023-05-29T01:32:24;13.40;99.90
38973;DHT22;25333;50.762;4.470;2023-05-29T01:34:51;13.40;99.90
38973;DHT22;25333;50.762;4.470;2023-05-29T01:37:17;13.40;99.90
38973;DHT22;25333;50.762;4.470;2023-05-29T01:39:42;13.40;99.90
38973;DHT22;25333;50.762;4.470;2023-05-29T01:42:10;13.50;99.90
38973;DHT22;25333;50.762;4.470;2023-05-29T01:44:36;13.40;99.90
38973;DHT22;25333;50.762;4.470;2023-05-29T01:47:07;13.40;99.90
38973;DHT22;25333;50.762;4.470;2023-05-29T01:49:33;13.30;99.90
38973;DHT22;25333;50.762;4.470;2023-05-29T01:52:03;13.30;99.90
38973;DHT22;25333;50.762;4.470;2023-05-29T01:54:29;13.30;99.90
38973;DHT22;25333;50.762;4.470;2023-05-29T01:56:55;13.30;99.90
38973;DHT22;25333;50.762;4.470;2023-05-29T01:59:21;13.30;99.90
38973;DHT22;25333;50.762;4.470;2023-05-29T02:01:48;13.30;99.90
38973;DHT22;25333;50.762;4.470;2023-05-29T02:04:13;13.20;99.90
38973;DHT22;25333;50.762;4.470;2023-05-29T02:06:41;13.10;99.90
38973;DHT22;25333;50.762;4.470;2023-05-29T02:09:07;13.00;99.90
38973;DHT22;25333;50.762;4.470;2023-05-29T02:11:32;13.00;99.90
38973;DHT22;25333;50.762;4.470;2023-05-29T02:13:58;13.00;99.90
38973;DHT22;25333;50.762;4.470;2023-05-29T02:16:23;13.00;99.90
38973;DHT22;25333;50.762;4.470;2023-05-29T02:18:52;13.00;99.90
38973;DHT22;25333;50.762;4.470;2023-05-29T02:21:18;13.00;99.90
38973;DHT22;25333;50.762;4.470;2023-05-29T02:23:44;12.90;99.90
38973;DHT22;25333;50.762;4.470;2023-05-29T02:26:11;13.00;99.90
38973;DHT22;25333;50.762;4.470;2023-05-29T02:28:37;12.80;99.90
38973;DHT22;25333;50.762;4.470;2023-05-29T02:31:03;12.80;99.90
38973;DHT22;25333;50.762;4.470;2023-05-29T02:33:29;12.80;99.90
38973;DHT22;25333;50.762;4.470;2023-05-29T02:35:55;12.80;99.90
38973;DHT22;25333;50.762;4.470;2023-05-29T02:38:20;12.80;99.90
38973;DHT22;25333;50.762;4.470;2023-05-29T02:40:46;12.70;99.90
38973;DHT22;25333;50.762;4.470;2023-05-29T02:43:13;12.70;99.90
38973;DHT22;25333;50.762;4.470;2023-05-29T02:45:38;12.70;99.90
38973;DHT22;25333;50.762;4.470;2023-05-29T02:48:04;12.70;99.90
38973;DHT22;25333;50.762;4.470;2023-05-29T02:50:30;12.70;99.90
38973;DHT22;25333;50.762;4.470;2023-05-29T02:52:55;12.60;99.90
38973;DHT22;25333;50.762;4.470;2023-05-29T02:55:21;12.60;99.90
38973;DHT22;25333;50.762;4.470;2023-05-29T02:57:47;12.70;99.90
38973;DHT22;25333;50.762;4.470;2023-05-29T03:00:14;12.70;99.90
38973;DHT22;25333;50.762;4.470;2023-05-29T03:02:40;12.70;99.90
38973;DHT22;25333;50.762;4.470;2023-05-29T03:05:06;12.70;99.90
38973;DHT22;25333;50.762;4.470;2023-05-29T03:07:31;12.70;99.90
38973;DHT22;25333;50.762;4.470;2023-05-29T03:09:57;12.60;99.90
38973;DHT22;25333;50.762;4.470;2023-05-29T03:12:23;12.60;99.90
38973;DHT22;25333;50.762;4.470;2023-05-29T03:14:49;12.60;99.90
38973;DHT22;25333;50.762;4.470;2023-05-29T03:17:14;12.50;99.90
38973;DHT22;25333;50.762;4.470;2023-05-29T03:19:43;12.40;99.90
38973;DHT22;25333;50.762;4.470;2023-05-29T03:22:09;12.40;99.90
38973;DHT22;25333;50.762;4.470;2023-05-29T03:24:34;12.30;99.90
38973;DHT22;25333;50.762;4.470;2023-05-29T03:27:01;12.30;99.90
38973;DHT22;25333;50.762;4.470;2023-05-29T03:29:29;12.30;99.90
38973;DHT22;25333;50.762;4.470;2023-05-29T03:31:55;12.20;99.90
38973;DHT22;25333;50.762;4.470;2023-05-29T03:34:20;12.20;99.90
38973;DHT22;25333;50.762;4.470;2023-05-29T03:36:46;12.10;99.90
38973;DHT22;25333;50.762;4.470;2023-05-29T03:39:12;12.10;99.90
38973;DHT22;25333;50.762;4.470;2023-05-29T03:41:37;12.00;99.90
38973;DHT22;25333;50.762;4.470;2023-05-29T03:44:03;11.90;99.90
38973;DHT22;25333;50.762;4.470;2023-05-29T03:46:29;11.90;99.90
38973;DHT22;25333;50.762;4.470;2023-05-29T03:48:55;11.90;99.90
38973;DHT22;25333;50.762;4.470;2023-05-29T03:51:20;11.90;99.90
38973;DHT22;25333;50.762;4.470;2023-05-29T03:53:46;11.80;99.90
38973;DHT22;25333;50.762;4.470;2023-05-29T03:56:12;11.80;99.90
38973;DHT22;25333;50.762;4.470;2023-05-29T03:58:37;11.80;99.90
38973;DHT22;25333;50.762;4.470;2023-05-29T04:01:04;11.70;99.90
38973;DHT22;25333;50.762;4.470;2023-05-29T04:03:29;11.70;99.90
38973;DHT22;25333;50.762;4.470;2023-05-29T04:05:56;11.70;99.90
38973;DHT22;25333;50.762;4.470;2023-05-29T04:08:21;11.60;99.90
38973;DHT22;25333;50.762;4.470;2023-05-29T04:10:47;11.70;99.90
38973;DHT22;25333;50.762;4.470;2023-05-29T04:13:13;11.70;99.90
38973;DHT22;25333;50.762;4.470;2023-05-29T04:15:38;11.70;99.90
38973;DHT22;25333;50.762;4.470;2023-05-29T04:18:04;11.60;99.90
38973;DHT22;25333;50.762;4.470;2023-05-29T04:20:30;11.60;99.90
38973;DHT22;25333;50.762;4.470;2023-05-29T04:22:56;11.60;99.90
38973;DHT22;25333;50.762;4.470;2023-05-29T04:25:22;11.60;99.90
38973;DHT22;25333;50.762;4.470;2023-05-29T04:27:47;11.60;99.90
38973;DHT22;25333;50.762;4.470;2023-05-29T04:30:16;11.50;99.90
38973;DHT22;25333;50.762;4.470;2023-05-29T04:32:42;11.60;99.90
38973;DHT22;25333;50.762;4.470;2023-05-29T04:35:08;11.50;99.90
38973;DHT22;25333;50.762;4.470;2023-05-29T04:37:35;11.60;99.90
38973;DHT22;25333;50.762;4.470;2023-05-29T04:40:07;11.50;99.90
38973;DHT22;25333;50.762;4.470;2023-05-29T04:42:38;11.50;99.90
38973;DHT22;25333;50.762;4.470;2023-05-29T04:45:06;11.50;99.90
38973;DHT22;25333;50.762;4.470;2023-05-29T04:47:32;11.60;99.90
38973;DHT22;25333;50.762;4.470;2023-05-29T04:50:02;11.60;99.90
38973;DHT22;25333;50.762;4.470;2023-05-29T04:52:27;11.70;99.90
38973;DHT22;25333;50.762;4.470;2023-05-29T04:54:54;11.60;99.90
38973;DHT22;25333;50.762;4.470;2023-05-29T04:57:20;11.50;99.90
38973;DHT22;25333;50.762;4.470;2023-05-29T04:59:45;11.50;99.90
38973;DHT22;25333;50.762;4.470;2023-05-29T05:02:11;11.50;99.90
38973;DHT22;25333;50.762;4.470;2023-05-29T05:04:37;11.60;99.90
38973;DHT22;25333;50.762;4.470;2023-05-29T05:07:04;11.60;99.90
38973;DHT22;25333;50.762;4.470;2023-05-29T05:09:30;11.60;99.90
38973;DHT22;25333;50.762;4.470;2023-05-29T05:11:57;11.50;99.90
38973;DHT22;25333;50.762;4.470;2023-05-29T05:14:22;11.50;99.90
38973;DHT22;25333;50.762;4.470;2023-05-29T05:16:48;11.60;99.90
38973;DHT22;25333;50.762;4.470;2023-05-29T05:19:13;11.60;99.90
38973;DHT22;25333;50.762;4.470;2023-05-29T05:21:39;11.60;99.90
38973;DHT22;25333;50.762;4.470;2023-05-29T05:24:05;11.60;99.90
38973;DHT22;25333;50.762;4.470;2023-05-29T05:26:30;11.60;99.90
38973;DHT22;25333;50.762;4.470;2023-05-29T05:28:56;11.70;99.90
38973;DHT22;25333;50.762;4.470;2023-05-29T05:31:23;11.80;99.90
38973;DHT22;25333;50.762;4.470;2023-05-29T05:33:49;11.80;99.90
38973;DHT22;25333;50.762;4.470;2023-05-29T05:36:14;11.90;99.90
38973;DHT22;25333;50.762;4.470;2023-05-29T05:38:40;11.90;99.90
38973;DHT22;25333;50.762;4.470;2023-05-29T05:41:05;12.00;99.90
38973;DHT22;25333;50.762;4.470;2023-05-29T05:43:32;12.00;99.90
38973;DHT22;25333;50.762;4.470;2023-05-29T05:45:57;11.90;99.90
38973;DHT22;25333;50.762;4.470;2023-05-29T05:48:23;11.80;99.90
38973;DHT22;25333;50.762;4.470;2023-05-29T05:50:49;11.90;99.90
38973;DHT22;25333;50.762;4.470;2023-05-29T05:53:15;11.80;99.90
38973;DHT22;25333;50.762;4.470;2023-05-29T05:55:42;12.00;99.90
38973;DHT22;25333;50.762;4.470;2023-05-29T05:58:07;12.10;99.90
38973;DHT22;25333;50.762;4.470;2023-05-29T06:00:33;12.20;99.90
38973;DHT22;25333;50.762;4.470;2023-05-29T06:02:58;12.30;99.90
38973;DHT22;25333;50.762;4.470;2023-05-29T06:05:25;12.40;99.90
38973;DHT22;25333;50.762;4.470;2023-05-29T06:07:51;12.50;99.90
38973;DHT22;25333;50.762;4.470;2023-05-29T06:10:16;12.60;99.90
38973;DHT22;25333;50.762;4.470;2023-05-29T06:12:42;12.60;99.90
38973;DHT22;25333;50.762;4.470;2023-05-29T06:15:08;12.60;99.90
38973;DHT22;25333;50.762;4.470;2023-05-29T06:17:33;12.70;99.90
38973;DHT22;25333;50.762;4.470;2023-05-29T06:20:00;12.70;99.90
38973;DHT22;25333;50.762;4.470;2023-05-29T06:22:26;12.70;99.90
38973;DHT22;25333;50.762;4.470;2023-05-29T06:24:51;12.80;99.90
38973;DHT22;25333;50.762;4.470;2023-05-29T06:27:17;12.90;99.90
38973;DHT22;25333;50.762;4.470;2023-05-29T06:29:44;13.10;99.90
38973;DHT22;25333;50.762;4.470;2023-05-29T06:32:09;13.20;99.90
38973;DHT22;25333;50.762;4.470;2023-05-29T06:34:35;13.40;99.90
38973;DHT22;25333;50.762;4.470;2023-05-29T06:37:00;13.50;99.90
38973;DHT22;25333;50.762;4.470;2023-05-29T06:39:26;13.60;99.90
38973;DHT22;25333;50.762;4.470;2023-05-29T06:41:52;13.60;99.90
38973;DHT22;25333;50.762;4.470;2023-05-29T06:44:17;13.60;99.90
38973;DHT22;25333;50.762;4.470;2023-05-29T06:46:43;13.60;99.90
38973;DHT22;25333;50.762;4.470;2023-05-29T06:49:08;13.70;99.90
38973;DHT22;25333;50.762;4.470;2023-05-29T06:51:34;13.90;99.90
38973;DHT22;25333;50.762;4.470;2023-05-29T06:54:00;14.10;99.90
38973;DHT22;25333;50.762;4.470;2023-05-29T06:56:26;14.10;99.50
38973;DHT22;25333;50.762;4.470;2023-05-29T06:58:52;14.20;99.90
38973;DHT22;25333;50.762;4.470;2023-05-29T07:01:18;14.30;99.90
38973;DHT22;25333;50.762;4.470;2023-05-29T07:03:44;14.10;99.10
38973;DHT22;25333;50.762;4.470;2023-05-29T07:06:09;14.10;99.90
38973;DHT22;25333;50.762;4.470;2023-05-29T07:08:35;14.10;99.90
38973;DHT22;25333;50.762;4.470;2023-05-29T07:11:01;14.20;99.90
38973;DHT22;25333;50.762;4.470;2023-05-29T07:13:27;14.30;99.90
38973;DHT22;25333;50.762;4.470;2023-05-29T07:15:53;14.30;99.60
38973;DHT22;25333;50.762;4.470;2023-05-29T07:18:18;14.10;99.40
38973;DHT22;25333;50.762;4.470;2023-05-29T07:20:44;14.10;99.80
38973;DHT22;25333;50.762;4.470;2023-05-29T07:23:10;14.20;99.40
38973;DHT22;25333;50.762;4.470;2023-05-29T07:25:36;14.20;99.90
38973;DHT22;25333;50.762;4.470;2023-05-29T07:28:01;14.30;99.90
38973;DHT22;25333;50.762;4.470;2023-05-29T07:30:27;14.40;99.90
38973;DHT22;25333;50.762;4.470;2023-05-29T07:32:52;14.50;99.10
38973;DHT22;25333;50.762;4.470;2023-05-29T07:35:18;14.50;99.60
38973;DHT22;25333;50.762;4.470;2023-05-29T07:37:44;14.50;99.20
38973;DHT22;25333;50.762;4.470;2023-05-29T07:40:10;14.50;99.80
38973;DHT22;25333;50.762;4.470;2023-05-29T07:42:35;14.60;99.90
38973;DHT22;25333;50.762;4.470;2023-05-29T07:45:01;14.70;99.60
38973;DHT22;25333;50.762;4.470;2023-05-29T07:47:27;14.70;99.50
38973;DHT22;25333;50.762;4.470;2023-05-29T07:49:53;14.80;99.30
38973;DHT22;25333;50.762;4.470;2023-05-29T07:52:19;14.80;99.40
38973;DHT22;25333;50.762;4.470;2023-05-29T07:54:44;14.80;98.90
38973;DHT22;25333;50.762;4.470;2023-05-29T07:57:10;14.90;99.10
38973;DHT22;25333;50.762;4.470;2023-05-29T07:59:37;14.70;98.90
38973;DHT22;25333;50.762;4.470;2023-05-29T08:02:03;14.80;99.50
38973;DHT22;25333;50.762;4.470;2023-05-29T08:04:29;14.70;99.20
38973;DHT22;25333;50.762;4.470;2023-05-29T08:06:56;14.70;98.60
38973;DHT22;25333;50.762;4.470;2023-05-29T08:09:21;14.60;98.60
38973;DHT22;25333;50.762;4.470;2023-05-29T08:11:47;14.60;99.10
38973;DHT22;25333;50.762;4.470;2023-05-29T08:14:14;14.60;99.30
38973;DHT22;25333;50.762;4.470;2023-05-29T08:16:40;14.60;98.90
38973;DHT22;25333;50.762;4.470;2023-05-29T08:19:06;14.70;99.00
38973;DHT22;25333;50.762;4.470;2023-05-29T08:21:32;14.70;98.80
38973;DHT22;25333;50.762;4.470;2023-05-29T08:23:58;14.90;98.70
38973;DHT22;25333;50.762;4.470;2023-05-29T08:26:24;15.00;99.00
38973;DHT22;25333;50.762;4.470;2023-05-29T08:28:49;15.10;98.90
38973;DHT22;25333;50.762;4.470;2023-05-29T08:31:16;15.20;98.90
38973;DHT22;25333;50.762;4.470;2023-05-29T08:33:41;15.30;98.50
38973;DHT22;25333;50.762;4.470;2023-05-29T08:36:07;15.40;98.70
38973;DHT22;25333;50.762;4.470;2023-05-29T08:38:34;15.40;97.90
38973;DHT22;25333;50.762;4.470;2023-05-29T08:41:00;15.30;98.50
38973;DHT22;25333;50.762;4.470;2023-05-29T08:43:31;15.40;97.60
38973;DHT22;25333;50.762;4.470;2023-05-29T08:46:06;15.50;98.30
38973;DHT22;25333;50.762;4.470;2023-05-29T08:48:32;15.50;97.80
38973;DHT22;25333;50.762;4.470;2023-05-29T08:51:25;15.60;98.20
38973;DHT22;25333;50.762;4.470;2023-05-29T08:53:55;15.80;98.60
38973;DHT22;25333;50.762;4.470;2023-05-29T08:56:21;15.90;97.40
38973;DHT22;25333;50.762;4.470;2023-05-29T08:58:48;15.90;96.90
38973;DHT22;25333;50.762;4.470;2023-05-29T09:01:14;15.90;97.90
38973;DHT22;25333;50.762;4.470;2023-05-29T09:03:40;16.10;98.20
38973;DHT22;25333;50.762;4.470;2023-05-29T09:06:07;16.20;97.70
38973;DHT22;25333;50.762;4.470;2023-05-29T09:08:34;16.30;97.80
38973;DHT22;25333;50.762;4.470;2023-05-29T09:11:00;16.40;97.50
38973;DHT22;25333;50.762;4.470;2023-05-29T09:13:25;16.40;96.70
38973;DHT22;25333;50.762;4.470;2023-05-29T09:15:57;16.30;96.80
38973;DHT22;25333;50.762;4.470;2023-05-29T09:18:23;16.40;97.60
38973;DHT22;25333;50.762;4.470;2023-05-29T09:20:49;16.40;97.40
38973;DHT22;25333;50.762;4.470;2023-05-29T09:23:14;16.40;96.70
38973;DHT22;25333;50.762;4.470;2023-05-29T09:25:41;16.10;95.70
38973;DHT22;25333;50.762;4.470;2023-05-29T09:28:08;16.20;97.10
38973;DHT22;25333;50.762;4.470;2023-05-29T09:30:41;16.40;97.00
38973;DHT22;25333;50.762;4.470;2023-05-29T09:33:09;16.60;96.90
38973;DHT22;25333;50.762;4.470;2023-05-29T09:35:36;16.80;96.50
38973;DHT22;25333;50.762;4.470;2023-05-29T09:38:02;16.80;96.80
38973;DHT22;25333;50.762;4.470;2023-05-29T09:40:36;16.80;95.70
38973;DHT22;25333;50.762;4.470;2023-05-29T09:43:09;16.90;97.40
38973;DHT22;25333;50.762;4.470;2023-05-29T09:45:41;17.10;96.20
38973;DHT22;25333;50.762;4.470;2023-05-29T09:48:12;17.20;96.60
38973;DHT22;25333;50.762;4.470;2023-05-29T09:50:42;17.30;96.80
38973;DHT22;25333;50.762;4.470;2023-05-29T09:53:31;17.50;95.60
38973;DHT22;25333;50.762;4.470;2023-05-29T09:55:57;17.60;96.60
38973;DHT22;25333;50.762;4.470;2023-05-29T09:58:26;17.70;96.60
38973;DHT22;25333;50.762;4.470;2023-05-29T10:00:52;17.90;95.80
38973;DHT22;25333;50.762;4.470;2023-05-29T10:03:18;17.80;95.90
38973;DHT22;25333;50.762;4.470;2023-05-29T10:05:49;17.50;94.50
38973;DHT22;25333;50.762;4.470;2023-05-29T10:08:18;17.50;94.80
38973;DHT22;25333;50.762;4.470;2023-05-29T10:10:46;17.50;94.80
38973;DHT22;25333;50.762;4.470;2023-05-29T10:13:14;17.60;96.30
38973;DHT22;25333;50.762;4.470;2023-05-29T10:15:41;17.60;95.50
38973;DHT22;25333;50.762;4.470;2023-05-29T10:18:32;17.50;94.90
38973;DHT22;25333;50.762;4.470;2023-05-29T10:21:00;17.80;95.70
38973;DHT22;25333;50.762;4.470;2023-05-29T10:23:28;18.10;95.40
38973;DHT22;25333;50.762;4.470;2023-05-29T10:26:00;18.20;94.80
38973;DHT22;25333;50.762;4.470;2023-05-29T10:28:27;18.00;95.20
38973;DHT22;25333;50.762;4.470;2023-05-29T10:31:02;18.10;95.90
38973;DHT22;25333;50.762;4.470;2023-05-29T10:34:39;18.40;96.10
38973;DHT22;25333;50.762;4.470;2023-05-29T10:36:42;18.50;93.40
38973;DHT22;25333;50.762;4.470;2023-05-29T10:39:13;18.60;93.60
38973;DHT22;25333;50.762;4.470;2023-05-29T10:41:38;18.50;93.20
38973;DHT22;25333;50.762;4.470;2023-05-29T10:47:05;18.80;94.50
38973;DHT22;25333;50.762;4.470;2023-05-29T10:49:31;19.00;94.20
38973;DHT22;25333;50.762;4.470;2023-05-29T10:51:58;19.40;94.30
38973;DHT22;25333;50.762;4.470;2023-05-29T10:54:26;19.70;94.20
38973;DHT22;25333;50.762;4.470;2023-05-29T10:56:55;19.80;92.30
38973;DHT22;25333;50.762;4.470;2023-05-29T10:59:21;19.50;94.20
38973;DHT22;25333;50.762;4.470;2023-05-29T11:01:51;19.70;93.80
38973;DHT22;25333;50.762;4.470;2023-05-29T11:06:46;19.10;92.00
38973;DHT22;25333;50.762;4.470;2023-05-29T11:09:29;19.30;93.80
38973;DHT22;25333;50.762;4.470;2023-05-29T11:12:24;19.70;93.30
38973;DHT22;25333;50.762;4.470;2023-05-29T11:15:08;19.90;92.20
38973;DHT22;25333;50.762;4.470;2023-05-29T11:20:35;20.30;91.40
38973;DHT22;25333;50.762;4.470;2023-05-29T11:23:08;20.50;91.50
38973;DHT22;25333;50.762;4.470;2023-05-29T11:25:35;20.40;91.60
38973;DHT22;25333;50.762;4.470;2023-05-29T11:28:03;20.30;92.10
38973;DHT22;25333;50.762;4.470;2023-05-29T11:30:44;20.30;90.60
38973;DHT22;25333;50.762;4.470;2023-05-29T11:33:25;19.80;90.30
38973;DHT22;25333;50.762;4.470;2023-05-29T11:36:01;19.70;92.00
38973;DHT22;25333;50.762;4.470;2023-05-29T11:38:27;19.60;91.30
38973;DHT22;25333;50.762;4.470;2023-05-29T11:40:56;19.40;91.00
38973;DHT22;25333;50.762;4.470;2023-05-29T11:43:23;19.50;91.50
38973;DHT22;25333;50.762;4.470;2023-05-29T11:45:49;19.40;91.20
38973;DHT22;25333;50.762;4.470;2023-05-29T11:48:15;19.50;92.10
38973;DHT22;25333;50.762;4.470;2023-05-29T11:50:41;19.70;91.70
38973;DHT22;25333;50.762;4.470;2023-05-29T11:53:07;20.00;90.40
38973;DHT22;25333;50.762;4.470;2023-05-29T11:55:34;20.20;91.50
38973;DHT22;25333;50.762;4.470;2023-05-29T11:58:01;20.50;91.50
38973;DHT22;25333;50.762;4.470;2023-05-29T12:00:32;20.70;91.00
38973;DHT22;25333;50.762;4.470;2023-05-29T12:02:58;20.80;91.20
38973;DHT22;25333;50.762;4.470;2023-05-29T12:05:29;20.70;90.70
38973;DHT22;25333;50.762;4.470;2023-05-29T12:07:56;20.60;89.40
38973;DHT22;25333;50.762;4.470;2023-05-29T12:10:23;20.50;90.60
38973;DHT22;25333;50.762;4.470;2023-05-29T12:12:58;20.60;90.60
38973;DHT22;25333;50.762;4.470;2023-05-29T12:15:24;20.60;90.70
38973;DHT22;25333;50.762;4.470;2023-05-29T12:17:50;20.80;89.80
38973;DHT22;25333;50.762;4.470;2023-05-29T12:20:17;21.00;90.50
38973;DHT22;25333;50.762;4.470;2023-05-29T12:22:44;21.10;91.00
38973;DHT22;25333;50.762;4.470;2023-05-29T12:25:17;21.00;88.70
38973;DHT22;25333;50.762;4.470;2023-05-29T12:27:45;21.10;89.20
38973;DHT22;25333;50.762;4.470;2023-05-29T12:30:12;21.10;90.70
38973;DHT22;25333;50.762;4.470;2023-05-29T12:32:43;21.10;89.20
38973;DHT22;25333;50.762;4.470;2023-05-29T12:37:58;21.20;90.90
38973;DHT22;25333;50.762;4.470;2023-05-29T12:40:28;21.30;90.00
38973;DHT22;25333;50.762;4.470;2023-05-29T12:43:02;21.10;89.80
38973;DHT22;25333;50.762;4.470;2023-05-29T12:45:30;20.90;89.70
38973;DHT22;25333;50.762;4.470;2023-05-29T12:47:57;21.00;89.70
38973;DHT22;25333;50.762;4.470;2023-05-29T12:50:27;20.90;89.20
38973;DHT22;25333;50.762;4.470;2023-05-29T12:53:01;20.90;90.10
38973;DHT22;25333;50.762;4.470;2023-05-29T12:55:28;21.00;89.50
38973;DHT22;25333;50.762;4.470;2023-05-29T12:57:54;21.00;90.10
38973;DHT22;25333;50.762;4.470;2023-05-29T13:00:21;21.00;89.20
38973;DHT22;25333;50.762;4.470;2023-05-29T13:02:47;20.90;90.00
38973;DHT22;25333;50.762;4.470;2023-05-29T13:05:14;20.80;89.70
38973;DHT22;25333;50.762;4.470;2023-05-29T13:07:42;20.80;87.80
38973;DHT22;25333;50.762;4.470;2023-05-29T13:10:08;20.80;90.50
38973;DHT22;25333;50.762;4.470;2023-05-29T13:12:34;21.00;90.30
38973;DHT22;25333;50.762;4.470;2023-05-29T13:15:00;21.00;89.20
38973;DHT22;25333;50.762;4.470;2023-05-29T13:17:26;20.90;90.00
38973;DHT22;25333;50.762;4.470;2023-05-29T13:19:51;20.90;89.10
38973;DHT22;25333;50.762;4.470;2023-05-29T13:22:17;20.90;88.90
38973;DHT22;25333;50.762;4.470;2023-05-29T13:24:42;20.80;87.50
38973;DHT22;25333;50.762;4.470;2023-05-29T13:27:08;20.70;87.70
38973;DHT22;25333;50.762;4.470;2023-05-29T13:29:34;20.70;89.00
38973;DHT22;25333;50.762;4.470;2023-05-29T13:32:00;20.70;87.60
38973;DHT22;25333;50.762;4.470;2023-05-29T13:34:26;20.40;87.10
38973;DHT22;25333;50.762;4.470;2023-05-29T13:36:54;20.30;89.30
38973;DHT22;25333;50.762;4.470;2023-05-29T13:39:20;20.30;90.50
38973;DHT22;25333;50.762;4.470;2023-05-29T13:41:46;20.30;90.40
38973;DHT22;25333;50.762;4.470;2023-05-29T13:44:12;20.50;88.30
38973;DHT22;25333;50.762;4.470;2023-05-29T13:46:37;20.40;89.10
38973;DHT22;25333;50.762;4.470;2023-05-29T13:49:03;20.30;87.20
38973;DHT22;25333;50.762;4.470;2023-05-29T13:51:29;20.40;90.10
38973;DHT22;25333;50.762;4.470;2023-05-29T13:53:54;20.30;89.80
38973;DHT22;25333;50.762;4.470;2023-05-29T13:56:20;20.40;90.20
38973;DHT22;25333;50.762;4.470;2023-05-29T13:58:46;20.50;90.80
38973;DHT22;25333;50.762;4.470;2023-05-29T14:01:11;20.60;88.00
38973;DHT22;25333;50.762;4.470;2023-05-29T14:03:38;20.70;90.10
38973;DHT22;25333;50.762;4.470;2023-05-29T14:06:04;20.70;89.40
38973;DHT22;25333;50.762;4.470;2023-05-29T14:08:31;20.60;90.20
38973;DHT22;25333;50.762;4.470;2023-05-29T14:10:56;20.60;89.90
38973;DHT22;25333;50.762;4.470;2023-05-29T14:13:22;20.70;90.30
38973;DHT22;25333;50.762;4.470;2023-05-29T14:15:47;20.80;88.60
38973;DHT22;25333;50.762;4.470;2023-05-29T14:18:15;20.70;88.60
38973;DHT22;25333;50.762;4.470;2023-05-29T14:20:41;20.80;90.40
38973;DHT22;25333;50.762;4.470;2023-05-29T14:23:06;20.80;88.10
38973;DHT22;25333;50.762;4.470;2023-05-29T14:25:39;20.70;88.40
38973;DHT22;25333;50.762;4.470;2023-05-29T14:28:04;20.70;88.70
38973;DHT22;25333;50.762;4.470;2023-05-29T14:30:31;20.70;88.60
38973;DHT22;25333;50.762;4.470;2023-05-29T14:32:57;20.80;89.30
38973;DHT22;25333;50.762;4.470;2023-05-29T14:35:23;20.80;90.00
38973;DHT22;25333;50.762;4.470;2023-05-29T14:37:48;20.70;90.00
38973;DHT22;25333;50.762;4.470;2023-05-29T14:40:14;20.70;87.90
38973;DHT22;25333;50.762;4.470;2023-05-29T14:42:40;20.60;88.90
38973;DHT22;25333;50.762;4.470;2023-05-29T14:45:06;20.60;88.80
38973;DHT22;25333;50.762;4.470;2023-05-29T14:47:32;20.70;88.90
38973;DHT22;25333;50.762;4.470;2023-05-29T14:49:58;20.60;88.70
38973;DHT22;25333;50.762;4.470;2023-05-29T14:52:24;20.60;88.70
38973;DHT22;25333;50.762;4.470;2023-05-29T14:54:50;20.60;88.70
38973;DHT22;25333;50.762;4.470;2023-05-29T14:57:15;20.50;89.30
38973;DHT22;25333;50.762;4.470;2023-05-29T14:59:41;20.40;90.20
38973;DHT22;25333;50.762;4.470;2023-05-29T15:02:06;20.40;90.10
38973;DHT22;25333;50.762;4.470;2023-05-29T15:04:32;20.50;89.60
38973;DHT22;25333;50.762;4.470;2023-05-29T15:06:58;20.60;89.80
38973;DHT22;25333;50.762;4.470;2023-05-29T15:09:23;20.50;89.30
38973;DHT22;25333;50.762;4.470;2023-05-29T15:11:49;20.50;89.80
38973;DHT22;25333;50.762;4.470;2023-05-29T15:14:16;20.50;88.90
38973;DHT22;25333;50.762;4.470;2023-05-29T15:16:42;20.40;89.30
38973;DHT22;25333;50.762;4.470;2023-05-29T15:19:08;20.30;89.70
38973;DHT22;25333;50.762;4.470;2023-05-29T15:21:33;20.30;90.30
38973;DHT22;25333;50.762;4.470;2023-05-29T15:23:59;20.30;90.20
38973;DHT22;25333;50.762;4.470;2023-05-29T15:26:25;20.30;89.70
38973;DHT22;25333;50.762;4.470;2023-05-29T15:28:52;20.30;89.30
38973;DHT22;25333;50.762;4.470;2023-05-29T15:31:17;20.20;88.20
38973;DHT22;25333;50.762;4.470;2023-05-29T15:33:43;20.00;88.90
38973;DHT22;25333;50.762;4.470;2023-05-29T15:36:09;20.00;89.30
38973;DHT22;25333;50.762;4.470;2023-05-29T15:38:35;20.00;87.90
38973;DHT22;25333;50.762;4.470;2023-05-29T15:41:00;20.00;88.90
38973;DHT22;25333;50.762;4.470;2023-05-29T15:43:26;19.90;88.80
38973;DHT22;25333;50.762;4.470;2023-05-29T15:45:52;19.70;87.50